PWSweather.com
Personal Weather Stations
Station Observations
270882
Flassian, LimouxFR 11300

FlassianLimouxFR 11300

Lat: 43.071798, Lon: 2.217292

Elevation: 165

Station Type: Oregon WMR 200

http://www.meteolimoux.fr

Latest ConditionsUpdated 5:22:14 AM GMT+01:01 Monday, Jun 25, 2018
Currently Today's Max Today's Min Today's Average
Temperature 58.5°F14.7°C 64.2°F17.9°C 58.5°F14.7°C 61.0°F16.1°C
Dew Point 50.5°F10.3°C 51.3°F10.7°C 49.5°F9.7°C 50.4°F10.2°C
Winds 1.3 mph WSW2.1 kmh WSW 2.0 mph -3.2 kmh - - 0.4 mph 0.6 kmh
Wind Gusts 2.9 mph4.7 kmh 4.3 mph6.9 kmh - -
Humidity 75% 75% 60% 68%
Pressure 30.04 in1017.3 mb 30.04 in1017.3 mb 30.01 in1016.3 mb -
Hour Temp Dew Point Humidity Winds Wind Gusts Pressure Precip Precip Rate Daily Precip Total
05:22 AM 58.5°F14.7°C 50.5°F10.3°C 75% 1.3 mph WSW2.1 kmh WSW 2.9 mph4.7 kmh 30.04 in1017.3 mb - 0.00 in0.0 mm 0.00 in0.0 mm
05:17 AM 58.5°F14.7°C 50.5°F10.3°C 75% 1.8 mph WSW2.9 kmh WSW 3.1 mph5.0 kmh 30.04 in1017.3 mb - 0.00 in0.0 mm 0.00 in0.0 mm
05:12 AM 58.5°F14.7°C 50.5°F10.3°C 75% 2.0 mph WSW3.2 kmh WSW 4.0 mph6.4 kmh 30.04 in1017.3 mb - 0.00 in0.0 mm 0.00 in0.0 mm
05:07 AM 58.5°F14.7°C 50.5°F10.3°C 75% Calm Calm -- 30.04 in1017.3 mb - 0.00 in0.0 mm 0.00 in0.0 mm
05:02 AM 58.5°F14.7°C 49.8°F9.9°C 73% 0.2 mph SW0.3 kmh SW 1.3 mph2.1 kmh 30.04 in1017.3 mb - 0.00 in0.0 mm 0.00 in0.0 mm
04:57 AM 58.6°F14.8°C 50.0°F10.0°C 73% 0.4 mph SW0.6 kmh SW 1.8 mph2.9 kmh 30.04 in1017.3 mb - 0.00 in0.0 mm 0.00 in0.0 mm
04:52 AM 58.6°F14.8°C 50.0°F10.0°C 73% Calm Calm -- 30.04 in1017.3 mb - 0.00 in0.0 mm 0.00 in0.0 mm
04:47 AM 58.6°F14.8°C 50.0°F10.0°C 73% Calm Calm -- 30.04 in1017.3 mb - 0.00 in0.0 mm 0.00 in0.0 mm
04:42 AM 58.6°F14.8°C 50.0°F10.0°C 73% Calm Calm -- 30.04 in1017.3 mb - 0.00 in0.0 mm 0.00 in0.0 mm
04:37 AM 58.6°F14.8°C 50.4°F10.2°C 74% Calm Calm -- 30.04 in1017.3 mb - 0.00 in0.0 mm 0.00 in0.0 mm
04:32 AM 58.6°F14.8°C 50.4°F10.2°C 74% Calm Calm -- 30.04 in1017.3 mb - 0.00 in0.0 mm 0.00 in0.0 mm
04:27 AM 58.8°F14.9°C 50.2°F10.1°C 73% 0.4 mph WSW0.6 kmh WSW 1.8 mph2.9 kmh 30.04 in1017.3 mb - 0.00 in0.0 mm 0.00 in0.0 mm
04:22 AM 59.0°F15.0°C 50.7°F10.4°C 74% 1.8 mph WSW2.9 kmh WSW 2.9 mph4.7 kmh 30.04 in1017.3 mb - 0.00 in0.0 mm 0.00 in0.0 mm
04:17 AM 59.0°F15.0°C 50.7°F10.4°C 74% 0.2 mph SW0.3 kmh SW 1.3 mph2.1 kmh 30.04 in1017.3 mb - 0.00 in0.0 mm 0.00 in0.0 mm
04:12 AM 59.0°F15.0°C 50.4°F10.2°C 73% Calm Calm -- 30.04 in1017.3 mb - 0.00 in0.0 mm 0.00 in0.0 mm
04:07 AM 59.0°F15.0°C 50.0°F10.0°C 72% Calm Calm -- 30.04 in1017.3 mb - 0.00 in0.0 mm 0.00 in0.0 mm
04:02 AM 59.0°F15.0°C 49.6°F9.8°C 71% Calm Calm -- 30.04 in1017.3 mb - 0.00 in0.0 mm 0.00 in0.0 mm
03:57 AM 59.2°F15.1°C 49.5°F9.7°C 70% Calm Calm -- 30.04 in1017.3 mb - 0.00 in0.0 mm 0.00 in0.0 mm
03:52 AM 59.4°F15.2°C 49.6°F9.8°C 70% Calm Calm -- 30.04 in1017.3 mb - 0.00 in0.0 mm 0.00 in0.0 mm
03:47 AM 59.5°F15.3°C 49.8°F9.9°C 70% 0.9 mph WSW1.4 kmh WSW 2.0 mph3.2 kmh 30.04 in1017.3 mb - 0.00 in0.0 mm 0.00 in0.0 mm
03:42 AM 59.9°F15.5°C 50.2°F10.1°C 70% Calm Calm -- 30.04 in1017.3 mb - 0.00 in0.0 mm 0.00 in0.0 mm
03:37 AM 60.1°F15.6°C 50.7°F10.4°C 71% Calm Calm -- 30.04 in1017.3 mb - 0.00 in0.0 mm 0.00 in0.0 mm
03:32 AM 60.1°F15.6°C 50.4°F10.2°C 70% Calm Calm -- 30.04 in1017.3 mb - 0.00 in0.0 mm 0.00 in0.0 mm
03:27 AM 60.3°F15.7°C 50.0°F10.0°C 69% 0.2 mph WSW0.3 kmh WSW 1.6 mph2.6 kmh 30.04 in1017.3 mb - 0.00 in0.0 mm 0.00 in0.0 mm
03:22 AM 60.3°F15.7°C 50.0°F10.0°C 69% 0.4 mph WSW0.6 kmh WSW 2.9 mph4.7 kmh 30.04 in1017.3 mb - 0.00 in0.0 mm 0.00 in0.0 mm
03:17 AM 60.6°F15.9°C 50.4°F10.2°C 69% 0.9 mph WSW1.4 kmh WSW 2.5 mph4.0 kmh 30.04 in1017.3 mb - 0.00 in0.0 mm 0.00 in0.0 mm
03:12 AM 60.8°F16.0°C 50.9°F10.5°C 70% 1.6 mph W2.6 kmh W 4.3 mph6.9 kmh 30.04 in1017.3 mb - 0.00 in0.0 mm 0.00 in0.0 mm
03:07 AM 60.8°F16.0°C 50.9°F10.5°C 70% 2.0 mph WSW3.2 kmh WSW 3.6 mph5.8 kmh 30.04 in1017.3 mb - 0.00 in0.0 mm 0.00 in0.0 mm
03:02 AM 61.0°F16.1°C 51.1°F10.6°C 70% 0.9 mph W1.4 kmh W 2.9 mph4.7 kmh 30.04 in1017.3 mb - 0.00 in0.0 mm 0.00 in0.0 mm
02:57 AM 61.0°F16.1°C 51.1°F10.6°C 70% Calm Calm -- 30.04 in1017.3 mb - 0.00 in0.0 mm 0.00 in0.0 mm
02:52 AM 61.0°F16.1°C 51.1°F10.6°C 70% Calm Calm -- 30.04 in1017.3 mb - 0.00 in0.0 mm 0.00 in0.0 mm
02:47 AM 61.0°F16.1°C 50.7°F10.4°C 69% Calm Calm -- 30.04 in1017.3 mb - 0.00 in0.0 mm 0.00 in0.0 mm
02:42 AM 61.0°F16.1°C 50.4°F10.2°C 68% Calm Calm -- 30.04 in1017.3 mb - 0.00 in0.0 mm 0.00 in0.0 mm
02:37 AM 61.0°F16.1°C 50.4°F10.2°C 68% Calm Calm -- 30.04 in1017.3 mb - 0.00 in0.0 mm 0.00 in0.0 mm
02:32 AM 61.2°F16.2°C 50.5°F10.3°C 68% Calm Calm -- 30.04 in1017.3 mb - 0.00 in0.0 mm 0.00 in0.0 mm
02:27 AM 61.2°F16.2°C 50.5°F10.3°C 68% Calm Calm -- 30.04 in1017.3 mb - 0.00 in0.0 mm 0.00 in0.0 mm
02:22 AM 61.2°F16.2°C 50.5°F10.3°C 68% Calm Calm -- 30.04 in1017.3 mb - 0.00 in0.0 mm 0.00 in0.0 mm
02:17 AM 61.3°F16.3°C 50.7°F10.4°C 68% Calm Calm -- 30.04 in1017.3 mb - 0.00 in0.0 mm 0.00 in0.0 mm
02:12 AM 61.3°F16.3°C 50.7°F10.4°C 68% Calm Calm -- 30.04 in1017.3 mb - 0.00 in0.0 mm 0.00 in0.0 mm
02:07 AM 61.3°F16.3°C 50.4°F10.2°C 67% Calm Calm -- 30.04 in1017.3 mb - 0.00 in0.0 mm 0.00 in0.0 mm
02:02 AM 61.5°F16.4°C 50.5°F10.3°C 67% Calm Calm -- 30.04 in1017.3 mb - 0.00 in0.0 mm 0.00 in0.0 mm
01:57 AM 61.5°F16.4°C 50.5°F10.3°C 67% Calm Calm -- 30.04 in1017.3 mb - 0.00 in0.0 mm 0.00 in0.0 mm
01:52 AM 61.7°F16.5°C 51.1°F10.6°C 68% Calm Calm -- 30.04 in1017.3 mb - 0.00 in0.0 mm 0.00 in0.0 mm
01:47 AM 61.7°F16.5°C 50.7°F10.4°C 67% Calm Calm -- 30.01 in1016.3 mb - 0.00 in0.0 mm 0.00 in0.0 mm
01:42 AM 61.7°F16.5°C 50.2°F10.1°C 66% Calm Calm -- 30.01 in1016.3 mb - 0.00 in0.0 mm 0.00 in0.0 mm
01:37 AM 61.9°F16.6°C 50.9°F10.5°C 67% Calm Calm -- 30.01 in1016.3 mb - 0.00 in0.0 mm 0.00 in0.0 mm
01:32 AM 62.1°F16.7°C 50.5°F10.3°C 66% 0.4 mph W0.6 kmh W 0.4 mph0.6 kmh 30.04 in1017.3 mb - 0.00 in0.0 mm 0.00 in0.0 mm
01:27 AM 62.1°F16.7°C 50.2°F10.1°C 65% 0.2 mph SW0.3 kmh SW 1.8 mph2.9 kmh 30.04 in1017.3 mb - 0.00 in0.0 mm 0.00 in0.0 mm
01:22 AM 62.2°F16.8°C 50.4°F10.2°C 65% 1.1 mph SW1.8 kmh SW 3.1 mph5.0 kmh 30.04 in1017.3 mb - 0.00 in0.0 mm 0.00 in0.0 mm
01:17 AM 62.4°F16.9°C 50.5°F10.3°C 65% 0.2 mph WSW0.3 kmh WSW 1.3 mph2.1 kmh 30.04 in1017.3 mb - 0.00 in0.0 mm 0.00 in0.0 mm
01:12 AM 62.8°F17.1°C 50.4°F10.2°C 64% 1.1 mph WSW1.8 kmh WSW 2.5 mph4.0 kmh 30.04 in1017.3 mb - 0.00 in0.0 mm 0.00 in0.0 mm
01:07 AM 62.8°F17.1°C 50.4°F10.2°C 64% 1.8 mph W2.9 kmh W 3.4 mph5.5 kmh 30.04 in1017.3 mb - 0.00 in0.0 mm 0.00 in0.0 mm
01:02 AM 63.0°F17.2°C 50.5°F10.3°C 64% 1.6 mph W2.6 kmh W 2.9 mph4.7 kmh 30.01 in1016.3 mb - 0.00 in0.0 mm 0.00 in0.0 mm
12:57 AM 63.1°F17.3°C 51.3°F10.7°C 65% Calm Calm -- 30.01 in1016.3 mb - 0.00 in0.0 mm 0.00 in0.0 mm
12:52 AM 63.3°F17.4°C 50.5°F10.3°C 63% 1.8 mph WSW2.9 kmh WSW 3.6 mph5.8 kmh 30.01 in1016.3 mb - 0.00 in0.0 mm 0.00 in0.0 mm
12:47 AM 63.3°F17.4°C 50.5°F10.3°C 63% 0.4 mph WSW0.6 kmh WSW 2.7 mph4.3 kmh 30.04 in1017.3 mb - 0.00 in0.0 mm 0.00 in0.0 mm
12:42 AM 63.5°F17.5°C 51.1°F10.6°C 64% Calm Calm -- 30.04 in1017.3 mb - 0.00 in0.0 mm 0.00 in0.0 mm
12:37 AM 63.5°F17.5°C 50.7°F10.4°C 63% Calm Calm -- 30.04 in1017.3 mb - 0.00 in0.0 mm 0.00 in0.0 mm
12:32 AM 63.5°F17.5°C 50.2°F10.1°C 62% Calm Calm -- 30.04 in1017.3 mb - 0.00 in0.0 mm 0.00 in0.0 mm
12:27 AM 63.5°F17.5°C 49.8°F9.9°C 61% Calm Calm -- 30.04 in1017.3 mb - 0.00 in0.0 mm 0.00 in0.0 mm
12:22 AM 63.7°F17.6°C 50.4°F10.2°C 62% Calm Calm -- 30.04 in1017.3 mb - 0.00 in0.0 mm 0.00 in0.0 mm
12:17 AM 63.7°F17.6°C 50.0°F10.0°C 61% Calm Calm -- 30.04 in1017.3 mb - 0.00 in0.0 mm 0.00 in0.0 mm
12:12 AM 64.0°F17.8°C 50.4°F10.2°C 61% Calm Calm -- 30.04 in1017.3 mb - 0.00 in0.0 mm 0.00 in0.0 mm
12:07 AM 64.0°F17.8°C 49.8°F9.9°C 60% Calm Calm -- 30.04 in1017.3 mb - 0.00 in0.0 mm 0.00 in0.0 mm
12:02 AM 64.2°F17.9°C 50.5°F10.3°C 61% Calm Calm -- 30.04 in1017.3 mb - 0.00 in0.0 mm 0.00 in0.0 mm